sensor_id;sensor_type;location;lat;lon;timestamp;pressure;altitude;pressure_sealevel;temperature;humidity
58686;BME280;44465;53.206;-6.106;2023-05-08T00:01:43;101264.78;;;20.90;57.77
58686;BME280;44465;53.206;-6.106;2023-05-08T00:04:09;101258.56;;;20.90;57.59
58686;BME280;44465;53.206;-6.106;2023-05-08T00:06:34;101258.56;;;20.90;57.64
58686;BME280;44465;53.206;-6.106;2023-05-08T00:09:00;101244.06;;;20.75;57.84
58686;BME280;44465;53.206;-6.106;2023-05-08T00:11:25;101256.97;;;20.86;57.86
58686;BME280;44465;53.206;-6.106;2023-05-08T00:13:51;101220.25;;;20.69;57.86
58686;BME280;44465;53.206;-6.106;2023-05-08T00:16:16;101255.09;;;20.88;57.58
58686;BME280;44465;53.206;-6.106;2023-05-08T00:18:42;101256.81;;;20.89;57.63
58686;BME280;44465;53.206;-6.106;2023-05-08T00:21:07;101246.38;;;20.83;57.75
58686;BME280;44465;53.206;-6.106;2023-05-08T00:23:33;101236.41;;;20.86;57.88
58686;BME280;44465;53.206;-6.106;2023-05-08T00:25:59;101237.34;;;20.85;57.95
58686;BME280;44465;53.206;-6.106;2023-05-08T00:28:24;101204.09;;;20.70;57.74
58686;BME280;44465;53.206;-6.106;2023-05-08T00:30:50;101239.25;;;20.83;57.63
58686;BME280;44465;53.206;-6.106;2023-05-08T00:33:16;101200.78;;;20.65;57.90
58686;BME280;44465;53.206;-6.106;2023-05-08T00:35:43;101246.25;;;20.86;57.93
58686;BME280;44465;53.206;-6.106;2023-05-08T00:38:08;101244.38;;;20.88;57.73
58686;BME280;44465;53.206;-6.106;2023-05-08T00:40:34;101227.72;;;20.81;57.92
58686;BME280;44465;53.206;-6.106;2023-05-08T00:43:01;101222.47;;;20.80;57.85
58686;BME280;44465;53.206;-6.106;2023-05-08T00:45:33;101233.66;;;20.88;57.93
58686;BME280;44465;53.206;-6.106;2023-05-08T00:48:01;101237.16;;;20.90;58.13
58686;BME280;44465;53.206;-6.106;2023-05-08T00:50:28;101237.41;;;20.84;57.85
58686;BME280;44465;53.206;-6.106;2023-05-08T00:52:55;101191.16;;;20.61;58.02
58686;BME280;44465;53.206;-6.106;2023-05-08T00:55:22;101212.84;;;20.75;57.84
58686;BME280;44465;53.206;-6.106;2023-05-08T00:57:47;101226.72;;;20.84;58.04
58686;BME280;44465;53.206;-6.106;2023-05-08T01:00:15;101235.47;;;20.87;58.00
58686;BME280;44465;53.206;-6.106;2023-05-08T01:02:43;101244.38;;;20.88;57.99
58686;BME280;44465;53.206;-6.106;2023-05-08T01:05:08;101239.97;;;20.87;58.10
58686;BME280;44465;53.206;-6.106;2023-05-08T01:07:34;101236.34;;;20.88;58.13
58686;BME280;44465;53.206;-6.106;2023-05-08T01:10:00;101223.19;;;20.83;58.32
58686;BME280;44465;53.206;-6.106;2023-05-08T01:17:43;101215.78;;;20.88;58.29
58686;BME280;44465;53.206;-6.106;2023-05-08T01:20:47;101205.16;;;20.87;58.21
58686;BME280;44465;53.206;-6.106;2023-05-08T01:26:41;101175.72;;;20.87;57.92
58686;BME280;44465;53.206;-6.106;2023-05-08T01:32:28;101171.63;;;20.80;58.20
58686;BME280;44465;53.206;-6.106;2023-05-08T01:38:02;101182.00;;;20.86;58.53
58686;BME280;44465;53.206;-6.106;2023-05-08T01:40:50;101180.41;;;20.82;58.19
58686;BME280;44465;53.206;-6.106;2023-05-08T01:43:34;101194.59;;;20.84;58.56
58686;BME280;44465;53.206;-6.106;2023-05-08T01:46:07;101176.78;;;20.83;58.47
58686;BME280;44465;53.206;-6.106;2023-05-08T01:48:38;101190.13;;;20.84;58.47
58686;BME280;44465;53.206;-6.106;2023-05-08T01:51:16;101182.94;;;20.85;58.15
58686;BME280;44465;53.206;-6.106;2023-05-08T01:53:55;101167.44;;;20.72;58.35
58686;BME280;44465;53.206;-6.106;2023-05-08T01:56:24;101184.81;;;20.83;58.62
58686;BME280;44465;53.206;-6.106;2023-05-08T01:58:53;101161.47;;;20.67;58.54
58686;BME280;44465;53.206;-6.106;2023-05-08T02:01:22;101194.44;;;20.87;58.56
58686;BME280;44465;53.206;-6.106;2023-05-08T02:03:48;101150.75;;;20.67;58.35
58686;BME280;44465;53.206;-6.106;2023-05-08T02:06:17;101191.78;;;20.87;58.30
58686;BME280;44465;53.206;-6.106;2023-05-08T02:08:45;101177.69;;;20.83;58.31
58686;BME280;44465;53.206;-6.106;2023-05-08T02:11:12;101171.31;;;20.86;58.46
58686;BME280;44465;53.206;-6.106;2023-05-08T02:13:39;101146.72;;;20.77;58.41
58686;BME280;44465;53.206;-6.106;2023-05-08T02:16:07;101157.13;;;20.84;58.54
58686;BME280;44465;53.206;-6.106;2023-05-08T02:18:36;101150.19;;;20.80;58.56
58686;BME280;44465;53.206;-6.106;2023-05-08T02:21:04;101150.91;;;20.83;58.57
58686;BME280;44465;53.206;-6.106;2023-05-08T02:23:32;101151.91;;;20.81;58.76
58686;BME280;44465;53.206;-6.106;2023-05-08T02:26:00;101163.59;;;20.80;58.56
58686;BME280;44465;53.206;-6.106;2023-05-08T02:28:28;101153.63;;;20.82;58.82
58686;BME280;44465;53.206;-6.106;2023-05-08T02:30:57;101148.59;;;20.75;58.42
58686;BME280;44465;53.206;-6.106;2023-05-08T02:33:23;101150.19;;;20.80;58.50
58686;BME280;44465;53.206;-6.106;2023-05-08T02:35:51;101163.41;;;20.83;58.67
58686;BME280;44465;53.206;-6.106;2023-05-08T02:38:19;101163.59;;;20.80;58.84
58686;BME280;44465;53.206;-6.106;2023-05-08T02:40:48;101164.34;;;20.82;58.99
58686;BME280;44465;53.206;-6.106;2023-05-08T02:43:15;101176.56;;;20.87;58.65
58686;BME280;44465;53.206;-6.106;2023-05-08T02:46:12;101175.78;;;20.85;58.69
58686;BME280;44465;53.206;-6.106;2023-05-08T02:48:57;101174.28;;;20.80;58.68
58686;BME280;44465;53.206;-6.106;2023-05-08T02:54:24;101178.53;;;20.84;58.73
58686;BME280;44465;53.206;-6.106;2023-05-08T02:57:07;101167.19;;;20.79;58.64
58686;BME280;44465;53.206;-6.106;2023-05-08T02:59:39;101145.63;;;20.63;58.73
58686;BME280;44465;53.206;-6.106;2023-05-08T03:05:02;101175.94;;;20.82;58.86
58686;BME280;44465;53.206;-6.106;2023-05-08T03:07:32;101184.81;;;20.83;58.89
58686;BME280;44465;53.206;-6.106;2023-05-08T03:10:04;101199.81;;;20.87;58.85
58686;BME280;44465;53.206;-6.106;2023-05-08T03:12:34;101182.16;;;20.83;58.81
58686;BME280;44465;53.206;-6.106;2023-05-08T03:15:06;101159.84;;;20.63;58.98
58686;BME280;44465;53.206;-6.106;2023-05-08T03:17:35;101186.66;;;20.82;58.82
58686;BME280;44465;53.206;-6.106;2023-05-08T03:20:06;101177.69;;;20.83;58.65
58686;BME280;44465;53.206;-6.106;2023-05-08T03:22:35;101175.72;;;20.87;58.88
58686;BME280;44465;53.206;-6.106;2023-05-08T03:25:04;101144.97;;;20.76;58.80
58686;BME280;44465;53.206;-6.106;2023-05-08T03:27:33;101144.63;;;20.84;59.19
58686;BME280;44465;53.206;-6.106;2023-05-08T03:30:00;101145.56;;;20.83;58.88
58686;BME280;44465;53.206;-6.106;2023-05-08T03:32:28;101127.91;;;20.79;58.88
58686;BME280;44465;53.206;-6.106;2023-05-08T03:34:58;101086.53;;;20.67;58.97
58686;BME280;44465;53.206;-6.106;2023-05-08T03:37:26;101121.94;;;20.72;58.90
58686;BME280;44465;53.206;-6.106;2023-05-08T03:39:53;101118.63;;;20.67;59.14
58686;BME280;44465;53.206;-6.106;2023-05-08T03:42:19;101136.63;;;20.83;58.95
58686;BME280;44465;53.206;-6.106;2023-05-08T03:44:50;101085.38;;;20.54;59.08
58686;BME280;44465;53.206;-6.106;2023-05-08T03:47:17;101125.88;;;20.84;58.95
58686;BME280;44465;53.206;-6.106;2023-05-08T03:49:48;101124.06;;;20.85;58.85
58686;BME280;44465;53.206;-6.106;2023-05-08T03:52:15;101122.22;;;20.85;59.00
58686;BME280;44465;53.206;-6.106;2023-05-08T03:54:41;101123.13;;;20.86;59.29
58686;BME280;44465;53.206;-6.106;2023-05-08T03:57:07;101093.75;;;20.65;58.91
58686;BME280;44465;53.206;-6.106;2023-05-08T03:59:49;101112.56;;;20.83;58.94
58686;BME280;44465;53.206;-6.106;2023-05-08T04:02:32;101117.09;;;20.81;59.08
58686;BME280;44465;53.206;-6.106;2023-05-08T04:05:11;101113.44;;;20.83;59.10
58686;BME280;44465;53.206;-6.106;2023-05-08T04:07:47;101073.38;;;20.63;59.08
58686;BME280;44465;53.206;-6.106;2023-05-08T04:10:21;101075.81;;;20.67;59.08
58686;BME280;44465;53.206;-6.106;2023-05-08T04:15:23;101081.81;;;20.72;59.25
58686;BME280;44465;53.206;-6.106;2023-05-08T04:17:54;101090.56;;;20.76;59.14
58686;BME280;44465;53.206;-6.106;2023-05-08T04:20:25;101101.78;;;20.84;59.18
58686;BME280;44465;53.206;-6.106;2023-05-08T04:22:53;101075.25;;;20.80;59.37
58686;BME280;44465;53.206;-6.106;2023-05-08T04:25:21;101069.03;;;20.79;59.34
58686;BME280;44465;53.206;-6.106;2023-05-08T04:27:48;101068.00;;;20.82;59.31
58686;BME280;44465;53.206;-6.106;2023-05-08T04:30:16;101074.00;;;20.68;59.19
58686;BME280;44465;53.206;-6.106;2023-05-08T04:32:43;101075.81;;;20.67;59.22
58686;BME280;44465;53.206;-6.106;2023-05-08T04:35:09;101105.31;;;20.85;59.05
58686;BME280;44465;53.206;-6.106;2023-05-08T04:37:35;101094.19;;;20.75;59.02
58686;BME280;44465;53.206;-6.106;2023-05-08T04:40:02;101107.19;;;20.83;59.17
58686;BME280;44465;53.206;-6.106;2023-05-08T04:42:30;101105.88;;;20.74;59.06
58686;BME280;44465;53.206;-6.106;2023-05-08T04:44:58;101124.28;;;20.80;59.17
58686;BME280;44465;53.206;-6.106;2023-05-08T04:47:24;101133.13;;;20.82;59.09
58686;BME280;44465;53.206;-6.106;2023-05-08T04:49:50;101121.16;;;20.70;59.34
58686;BME280;44465;53.206;-6.106;2023-05-08T04:52:15;101131.38;;;20.81;59.30
58686;BME280;44465;53.206;-6.106;2023-05-08T04:54:42;101136.72;;;20.81;59.38
58686;BME280;44465;53.206;-6.106;2023-05-08T04:57:08;101149.16;;;20.82;59.41
58686;BME280;44465;53.206;-6.106;2023-05-08T04:59:34;101122.88;;;20.71;59.74
58686;BME280;44465;53.206;-6.106;2023-05-08T05:01:59;101140.47;;;20.77;59.35
58686;BME280;44465;53.206;-6.106;2023-05-08T05:04:27;101125.72;;;20.68;59.23
58686;BME280;44465;53.206;-6.106;2023-05-08T05:06:54;101113.28;;;20.67;59.52
58686;BME280;44465;53.206;-6.106;2023-05-08T05:09:20;101113.34;;;20.66;59.36
58686;BME280;44465;53.206;-6.106;2023-05-08T05:11:45;101104.56;;;20.64;59.42
58686;BME280;44465;53.206;-6.106;2023-05-08T05:14:11;101123.56;;;20.76;59.40
58686;BME280;44465;53.206;-6.106;2023-05-08T05:16:37;101133.16;;;20.81;59.35
58686;BME280;44465;53.206;-6.106;2023-05-08T05:19:02;101102.59;;;20.67;59.35
58686;BME280;44465;53.206;-6.106;2023-05-08T05:21:29;101119.34;;;20.71;59.26
58686;BME280;44465;53.206;-6.106;2023-05-08T05:23:55;101143.81;;;20.82;59.52
58686;BME280;44465;53.206;-6.106;2023-05-08T05:26:20;101113.56;;;20.61;59.48
58686;BME280;44465;53.206;-6.106;2023-05-08T05:28:46;101143.34;;;20.74;59.53
58686;BME280;44465;53.206;-6.106;2023-05-08T05:31:12;101142.16;;;20.80;59.40
58686;BME280;44465;53.206;-6.106;2023-05-08T05:33:37;101132.66;;;20.72;59.59
58686;BME280;44465;53.206;-6.106;2023-05-08T05:36:04;101136.44;;;20.68;59.78
58686;BME280;44465;53.206;-6.106;2023-05-08T05:38:29;101151.84;;;20.82;59.55
58686;BME280;44465;53.206;-6.106;2023-05-08T05:40:55;101148.28;;;20.82;59.49
58686;BME280;44465;53.206;-6.106;2023-05-08T05:43:20;101147.66;;;20.76;59.56
58686;BME280;44465;53.206;-6.106;2023-05-08T05:45:46;101138.84;;;20.74;59.67
58686;BME280;44465;53.206;-6.106;2023-05-08T05:48:12;101147.66;;;20.76;59.42
58686;BME280;44465;53.206;-6.106;2023-05-08T05:50:38;101144.97;;;20.76;59.52
58686;BME280;44465;53.206;-6.106;2023-05-08T05:53:04;101143.81;;;20.82;59.55
58686;BME280;44465;53.206;-6.106;2023-05-08T05:55:30;101109.38;;;20.55;59.79
58686;BME280;44465;53.206;-6.106;2023-05-08T05:57:57;101127.59;;;20.66;59.43
58686;BME280;44465;53.206;-6.106;2023-05-08T06:00:22;101140.66;;;20.74;59.43
58686;BME280;44465;53.206;-6.106;2023-05-08T06:02:52;101144.97;;;20.76;59.19
58686;BME280;44465;53.206;-6.106;2023-05-08T06:05:17;101152.88;;;20.80;59.79
58686;BME280;44465;53.206;-6.106;2023-05-08T06:07:43;101107.88;;;20.50;59.63
58686;BME280;44465;53.206;-6.106;2023-05-08T06:10:10;101145.91;;;20.75;59.61
58686;BME280;44465;53.206;-6.106;2023-05-08T06:12:36;101158.13;;;20.81;59.55
58686;BME280;44465;53.206;-6.106;2023-05-08T06:15:02;101116.75;;;20.69;59.35
58686;BME280;44465;53.206;-6.106;2023-05-08T06:17:28;101132.22;;;20.82;59.38
58686;BME280;44465;53.206;-6.106;2023-05-08T06:19:53;101122.69;;;20.76;59.67
58686;BME280;44465;53.206;-6.106;2023-05-08T06:22:21;101138.47;;;20.82;59.59
58686;BME280;44465;53.206;-6.106;2023-05-08T06:24:50;101129.03;;;20.73;59.82
58686;BME280;44465;53.206;-6.106;2023-05-08T06:27:20;101137.91;;;20.75;59.90
58686;BME280;44465;53.206;-6.106;2023-05-08T06:29:50;101128.94;;;20.76;59.51
58686;BME280;44465;53.206;-6.106;2023-05-08T06:32:20;101113.28;;;20.67;59.54
58686;BME280;44465;53.206;-6.106;2023-05-08T06:34:47;101113.28;;;20.67;59.43
58686;BME280;44465;53.206;-6.106;2023-05-08T06:37:12;101130.66;;;20.77;59.62
58686;BME280;44465;53.206;-6.106;2023-05-08T06:39:38;101148.28;;;20.82;59.77
58686;BME280;44465;53.206;-6.106;2023-05-08T06:42:03;101142.16;;;20.80;59.54
58686;BME280;44465;53.206;-6.106;2023-05-08T06:44:34;101146.56;;;20.81;59.64
58686;BME280;44465;53.206;-6.106;2023-05-08T06:46:59;101140.25;;;20.82;59.73
58686;BME280;44465;53.206;-6.106;2023-05-08T06:49:25;101142.16;;;20.80;59.99
58686;BME280;44465;53.206;-6.106;2023-05-08T06:51:50;101139.69;;;20.75;59.66
58686;BME280;44465;53.206;-6.106;2023-05-08T06:54:16;101131.72;;;20.73;59.75
58686;BME280;44465;53.206;-6.106;2023-05-08T06:56:42;101102.88;;;20.61;59.83
58686;BME280;44465;53.206;-6.106;2023-05-08T06:59:07;101116.91;;;20.66;59.68
58686;BME280;44465;53.206;-6.106;2023-05-08T07:01:33;101134.91;;;20.82;59.85
58686;BME280;44465;53.206;-6.106;2023-05-08T07:03:58;101124.50;;;20.75;59.98
58686;BME280;44465;53.206;-6.106;2023-05-08T07:06:24;101132.22;;;20.82;60.02
58686;BME280;44465;53.206;-6.106;2023-05-08T07:08:50;101128.47;;;20.86;60.00
58686;BME280;44465;53.206;-6.106;2023-05-08T07:11:15;101123.25;;;20.83;59.90
58686;BME280;44465;53.206;-6.106;2023-05-08T07:13:41;101098.75;;;20.73;59.85
58686;BME280;44465;53.206;-6.106;2023-05-08T07:16:08;101122.22;;;20.85;59.36
58686;BME280;44465;53.206;-6.106;2023-05-08T07:18:35;101132.09;;;20.85;59.81
58686;BME280;44465;53.206;-6.106;2023-05-08T07:21:01;101086.09;;;20.57;59.50
58686;BME280;44465;53.206;-6.106;2023-05-08T07:23:26;101072.94;;;20.53;59.68
58686;BME280;44465;53.206;-6.106;2023-05-08T07:25:52;101124.75;;;20.88;59.65
58686;BME280;44465;53.206;-6.106;2023-05-08T07:28:19;101131.06;;;20.87;59.98
58686;BME280;44465;53.206;-6.106;2023-05-08T07:30:46;101107.63;;;20.73;59.62
58686;BME280;44465;53.206;-6.106;2023-05-08T07:33:11;101128.31;;;20.89;59.85
58686;BME280;44465;53.206;-6.106;2023-05-08T07:35:41;101098.78;;;20.71;59.66
58686;BME280;44465;53.206;-6.106;2023-05-08T07:38:06;101100.53;;;20.72;59.59
58686;BME280;44465;53.206;-6.106;2023-05-08T07:40:32;101084.66;;;20.69;60.07
58686;BME280;44465;53.206;-6.106;2023-05-08T07:42:58;101113.03;;;20.91;59.81
58686;BME280;44465;53.206;-6.106;2023-05-08T07:45:23;101115.72;;;20.91;60.02
58686;BME280;44465;53.206;-6.106;2023-05-08T07:47:50;101111.47;;;20.87;59.64
58686;BME280;44465;53.206;-6.106;2023-05-08T07:50:16;101122.78;;;20.92;60.00
58686;BME280;44465;53.206;-6.106;2023-05-08T07:52:42;101097.59;;;20.79;60.03
58686;BME280;44465;53.206;-6.106;2023-05-08T07:55:08;101116.97;;;20.84;60.06
58686;BME280;44465;53.206;-6.106;2023-05-08T07:57:37;101120.59;;;20.83;59.77
58686;BME280;44465;53.206;-6.106;2023-05-08T08:00:07;101116.16;;;20.82;60.17
58686;BME280;44465;53.206;-6.106;2023-05-08T08:02:40;101114.50;;;20.79;59.74
58686;BME280;44465;53.206;-6.106;2023-05-08T08:05:06;101125.66;;;20.89;59.77
58686;BME280;44465;53.206;-6.106;2023-05-08T08:07:32;101121.84;;;20.75;60.42
58686;BME280;44465;53.206;-6.106;2023-05-08T08:09:58;101125.06;;;20.63;60.62
58686;BME280;44465;53.206;-6.106;2023-05-08T08:12:24;101136.13;;;20.55;60.66
58686;BME280;44465;53.206;-6.106;2023-05-08T08:14:49;101136.44;;;20.49;61.15
58686;BME280;44465;53.206;-6.106;2023-05-08T08:17:15;101130.22;;;20.29;61.09
58686;BME280;44465;53.206;-6.106;2023-05-08T08:19:40;101134.19;;;20.21;61.36
58686;BME280;44465;53.206;-6.106;2023-05-08T08:22:06;101148.50;;;20.20;61.51
58686;BME280;44465;53.206;-6.106;2023-05-08T08:24:32;101123.56;;;20.00;61.60
58686;BME280;44465;53.206;-6.106;2023-05-08T08:26:57;101098.34;;;19.85;61.50
58686;BME280;44465;53.206;-6.106;2023-05-08T08:29:23;101139.84;;;20.14;61.62
58686;BME280;44465;53.206;-6.106;2023-05-08T08:31:48;101132.78;;;19.93;62.02
58686;BME280;44465;53.206;-6.106;2023-05-08T08:34:14;101102.97;;;19.81;61.79
58686;BME280;44465;53.206;-6.106;2023-05-08T08:36:39;101136.53;;;19.89;62.24
58686;BME280;44465;53.206;-6.106;2023-05-08T08:39:05;101113.53;;;19.84;61.90
58686;BME280;44465;53.206;-6.106;2023-05-08T08:41:31;101121.59;;;19.83;62.11
58686;BME280;44465;53.206;-6.106;2023-05-08T08:43:57;101109.38;;;19.77;62.06
58686;BME280;44465;53.206;-6.106;2023-05-08T08:46:24;101131.28;;;19.87;62.72
58686;BME280;44465;53.206;-6.106;2023-05-08T08:48:50;101121.16;;;19.73;62.84
58686;BME280;44465;53.206;-6.106;2023-05-08T08:51:23;101128.84;;;19.81;62.17
58686;BME280;44465;53.206;-6.106;2023-05-08T08:54:09;101128.25;;;19.95;61.60
58686;BME280;44465;53.206;-6.106;2023-05-08T08:56:38;101127.75;;;20.06;61.68
58686;BME280;44465;53.206;-6.106;2023-05-08T08:59:05;101128.34;;;20.12;61.15
58686;BME280;44465;53.206;-6.106;2023-05-08T09:01:34;101135.28;;;20.17;61.12
58686;BME280;44465;53.206;-6.106;2023-05-08T09:04:01;101090.88;;;19.93;61.24
58686;BME280;44465;53.206;-6.106;2023-05-08T09:06:27;101128.03;;;20.19;61.27
58686;BME280;44465;53.206;-6.106;2023-05-08T09:08:57;101104.41;;;20.09;61.59
58686;BME280;44465;53.206;-6.106;2023-05-08T09:11:23;101095.09;;;19.99;61.50
58686;BME280;44465;53.206;-6.106;2023-05-08T09:13:48;101115.78;;;20.14;61.82
58686;BME280;44465;53.206;-6.106;2023-05-08T09:16:14;101099.16;;;20.08;61.78
58686;BME280;44465;53.206;-6.106;2023-05-08T09:18:40;101100.97;;;20.07;61.84
58686;BME280;44465;53.206;-6.106;2023-05-08T09:21:05;101117.94;;;20.25;61.88
58686;BME280;44465;53.206;-6.106;2023-05-08T09:23:31;101122.28;;;20.28;61.64
58686;BME280;44465;53.206;-6.106;2023-05-08T09:25:57;101116.06;;;20.27;61.86
58686;BME280;44465;53.206;-6.106;2023-05-08T09:28:24;101117.88;;;20.27;61.73
58686;BME280;44465;53.206;-6.106;2023-05-08T09:33:19;101049.22;;;19.89;61.62
58686;BME280;44465;53.206;-6.106;2023-05-08T09:35:45;101106.38;;;20.06;61.73
58686;BME280;44465;53.206;-6.106;2023-05-08T09:38:36;101124.97;;;20.28;61.26
58686;BME280;44465;53.206;-6.106;2023-05-08T09:41:07;101063.09;;;19.97;61.81
58686;BME280;44465;53.206;-6.106;2023-05-08T09:43:33;101129.34;;;20.29;61.58
58686;BME280;44465;53.206;-6.106;2023-05-08T09:46:22;101122.44;;;20.25;61.92
58686;BME280;44465;53.206;-6.106;2023-05-08T09:48:49;101124.22;;;20.24;61.70
58686;BME280;44465;53.206;-6.106;2023-05-08T09:51:16;101128.63;;;20.25;61.80
58686;BME280;44465;53.206;-6.106;2023-05-08T09:53:42;101087.44;;;20.10;61.57
58686;BME280;44465;53.206;-6.106;2023-05-08T09:56:21;101128.94;;;20.38;62.08
58686;BME280;44465;53.206;-6.106;2023-05-08T09:58:52;101123.88;;;20.32;62.22
58686;BME280;44465;53.206;-6.106;2023-05-08T10:01:34;101125.38;;;20.38;61.97
58686;BME280;44465;53.206;-6.106;2023-05-08T10:04:00;101098.13;;;20.29;62.39
58686;BME280;44465;53.206;-6.106;2023-05-08T10:06:27;101122.00;;;20.53;61.91
58686;BME280;44465;53.206;-6.106;2023-05-08T10:09:12;101125.53;;;20.54;61.57
58686;BME280;44465;53.206;-6.106;2023-05-08T10:11:49;101085.41;;;20.35;61.95
58686;BME280;44465;53.206;-6.106;2023-05-08T10:14:18;101058.25;;;20.25;61.68
58686;BME280;44465;53.206;-6.106;2023-05-08T10:16:45;101108.38;;;20.58;61.61
58686;BME280;44465;53.206;-6.106;2023-05-08T10:19:14;101120.44;;;20.67;61.50
58686;BME280;44465;53.206;-6.106;2023-05-08T10:21:42;101113.75;;;20.58;62.03
58686;BME280;44465;53.206;-6.106;2023-05-08T10:24:14;101118.63;;;20.67;61.63
58686;BME280;44465;53.206;-6.106;2023-05-08T10:27:08;101112.84;;;20.57;61.40
58686;BME280;44465;53.206;-6.106;2023-05-08T10:30:02;101121.94;;;20.72;61.43
58686;BME280;44465;53.206;-6.106;2023-05-08T10:32:37;101100.28;;;20.59;61.80
58686;BME280;44465;53.206;-6.106;2023-05-08T10:35:08;101055.91;;;20.36;61.59
58686;BME280;44465;53.206;-6.106;2023-05-08T10:37:35;101111.13;;;20.75;61.81
58686;BME280;44465;53.206;-6.106;2023-05-08T10:40:03;101057.66;;;20.37;61.92
58686;BME280;44465;53.206;-6.106;2023-05-08T10:42:30;101086.66;;;20.64;61.76
58686;BME280;44465;53.206;-6.106;2023-05-08T10:44:56;101051.16;;;20.43;61.90
58686;BME280;44465;53.206;-6.106;2023-05-08T10:48:42;101125.56;;;20.90;61.46
58686;BME280;44465;53.206;-6.106;2023-05-08T10:51:05;101127.31;;;20.91;61.46
58686;BME280;44465;53.206;-6.106;2023-05-08T10:56:10;101097.00;;;20.72;61.43
58686;BME280;44465;53.206;-6.106;2023-05-08T10:58:36;101142.19;;;20.97;61.18
58686;BME280;44465;53.206;-6.106;2023-05-08T11:03:37;101123.44;;;20.80;61.10
58686;BME280;44465;53.206;-6.106;2023-05-08T11:06:03;101145.34;;;21.05;60.91
58686;BME280;44465;53.206;-6.106;2023-05-08T11:08:30;101167.00;;;21.18;61.06
58686;BME280;44465;53.206;-6.106;2023-05-08T11:11:04;101150.78;;;21.04;61.50
58686;BME280;44465;53.206;-6.106;2023-05-08T11:13:37;101105.00;;;20.91;60.94
58686;BME280;44465;53.206;-6.106;2023-05-08T11:16:05;101138.50;;;21.17;61.36
58686;BME280;44465;53.206;-6.106;2023-05-08T11:18:31;101149.47;;;21.30;61.24
58686;BME280;44465;53.206;-6.106;2023-05-08T11:21:04;101144.41;;;21.24;61.09
58686;BME280;44465;53.206;-6.106;2023-05-08T11:23:33;101122.44;;;21.17;61.06
58686;BME280;44465;53.206;-6.106;2023-05-08T11:26:05;101049.88;;;20.69;60.90
58686;BME280;44465;53.206;-6.106;2023-05-08T11:31:18;101115.38;;;21.16;60.92
58686;BME280;44465;53.206;-6.106;2023-05-08T11:33:44;101107.41;;;21.15;61.11
58686;BME280;44465;53.206;-6.106;2023-05-08T11:39:05;101072.72;;;20.94;60.80
58686;BME280;44465;53.206;-6.106;2023-05-08T11:41:37;101091.66;;;21.08;60.89
58686;BME280;44465;53.206;-6.106;2023-05-08T11:46:49;101150.09;;;21.35;60.66
58686;BME280;44465;53.206;-6.106;2023-05-08T11:49:16;101135.44;;;21.25;60.52
58686;BME280;44465;53.206;-6.106;2023-05-08T11:51:44;101058.97;;;20.84;60.46
58686;BME280;44465;53.206;-6.106;2023-05-08T11:54:14;101150.41;;;21.29;60.78
58686;BME280;44465;53.206;-6.106;2023-05-08T11:56:40;101132.16;;;21.20;60.66
58686;BME280;44465;53.206;-6.106;2023-05-08T11:59:07;101149.31;;;21.33;60.60
58686;BME280;44465;53.206;-6.106;2023-05-08T12:01:34;101133.88;;;21.21;60.62
58686;BME280;44465;53.206;-6.106;2023-05-08T12:04:08;101092.75;;;21.04;60.42
58686;BME280;44465;53.206;-6.106;2023-05-08T12:06:37;101058.56;;;20.92;60.71
58686;BME280;44465;53.206;-6.106;2023-05-08T12:09:09;101082.69;;;21.10;60.56
58686;BME280;44465;53.206;-6.106;2023-05-08T12:11:35;101047.13;;;20.88;60.54
58686;BME280;44465;53.206;-6.106;2023-05-08T12:14:01;101024.53;;;20.76;60.44
58686;BME280;44465;53.206;-6.106;2023-05-08T12:16:26;101069.28;;;21.10;60.40
58686;BME280;44465;53.206;-6.106;2023-05-08T12:18:52;101109.91;;;21.35;60.15
58686;BME280;44465;53.206;-6.106;2023-05-08T12:21:20;101067.56;;;21.08;60.32
58686;BME280;44465;53.206;-6.106;2023-05-08T12:23:46;101111.97;;;21.30;60.25
58686;BME280;44465;53.206;-6.106;2023-05-08T12:26:11;101127.63;;;21.38;60.23
58686;BME280;44465;53.206;-6.106;2023-05-08T12:28:38;101066.75;;;21.06;60.21
58686;BME280;44465;53.206;-6.106;2023-05-08T12:31:05;101063.84;;;21.11;60.20
58686;BME280;44465;53.206;-6.106;2023-05-08T12:33:32;101033.38;;;20.96;60.07
58686;BME280;44465;53.206;-6.106;2023-05-08T12:35:59;101016.84;;;20.88;60.05
58686;BME280;44465;53.206;-6.106;2023-05-08T12:38:25;101034.78;;;21.03;60.03
58686;BME280;44465;53.206;-6.106;2023-05-08T12:40:52;101082.19;;;21.36;60.09
58686;BME280;44465;53.206;-6.106;2023-05-08T12:43:20;101039.03;;;21.07;60.08
58686;BME280;44465;53.206;-6.106;2023-05-08T12:45:49;100998.25;;;20.85;60.08
58686;BME280;44465;53.206;-6.106;2023-05-08T12:48:20;101042.31;;;21.13;60.11
58686;BME280;44465;53.206;-6.106;2023-05-08T12:50:45;101088.34;;;21.38;59.85
58686;BME280;44465;53.206;-6.106;2023-05-08T12:53:14;101100.53;;;21.44;60.03
58686;BME280;44465;53.206;-6.106;2023-05-08T12:55:49;101069.59;;;21.21;59.83
58686;BME280;44465;53.206;-6.106;2023-05-08T12:58:17;101111.31;;;21.43;59.92
58686;BME280;44465;53.206;-6.106;2023-05-08T13:00:44;101069.59;;;21.21;59.80
58686;BME280;44465;53.206;-6.106;2023-05-08T13:03:11;101052.09;;;21.14;59.65
58686;BME280;44465;53.206;-6.106;2023-05-08T13:05:41;101032.44;;;20.24;52.01
58686;BME280;44465;53.206;-6.106;2023-05-08T13:08:08;101057.59;;;20.56;53.78
58686;BME280;44465;53.206;-6.106;2023-05-08T13:10:54;101000.09;;;20.48;54.24
58686;BME280;44465;53.206;-6.106;2023-05-08T13:13:25;101000.47;;;20.40;51.16
58686;BME280;44465;53.206;-6.106;2023-05-08T13:15:52;101008.13;;;20.65;52.57
58686;BME280;44465;53.206;-6.106;2023-05-08T13:18:20;101076.06;;;20.99;51.93
58686;BME280;44465;53.206;-6.106;2023-05-08T13:20:46;101068.56;;;20.88;51.46
58686;BME280;44465;53.206;-6.106;2023-05-08T13:23:12;101032.84;;;20.70;51.58
58686;BME280;44465;53.206;-6.106;2023-05-08T13:25:38;100981.63;;;20.24;50.69
58686;BME280;44465;53.206;-6.106;2023-05-08T13:28:05;101094.00;;;20.80;51.13